Time;durP1;ratioP1;P1;durP2;ratioP2;P2;SDS_P1;SDS_P2;PMS_P1;PMS_P2;Temp;Humidity;BMP_temperature;BMP_pressure;BME280_temperature;BME280_humidity;BME280_pressure;Samples;Min_cycle;Max_cycle;Signal;HPM_P1;HPM_P2
2022/03/14 00:01:00;;;;;;;14.50;4.65;;;;;;;;;;5036416;28;20078;-67
2022/03/14 00:03:27;;;;;;;19.88;4.93;;;;;;;;;;5054291;28;20029;-68
2022/03/14 00:05:53;;;;;;;19.85;4.78;;;;;;;;;;5054165;28;20052;-68
2022/03/14 00:08:21;;;;;;;21.38;5.53;;;;;;;;;;5054565;28;20017;-67
2022/03/14 00:10:47;;;;;;;13.38;4.50;;;;;;;;;;5054250;28;20104;-66
2022/03/14 00:13:16;;;;;;;18.48;5.05;;;;;;;;;;5054176;28;20056;-68
2022/03/14 00:15:42;;;;;;;16.23;4.68;;;;;;;;;;5054131;28;20035;-68
2022/03/14 00:18:10;;;;;;;19.38;4.97;;;;;;;;;;5054065;28;20462;-67
2022/03/14 00:20:36;;;;;;;14.50;4.55;;;;;;;;;;5053977;28;20541;-66
2022/03/14 00:23:02;;;;;;;18.38;4.95;;;;;;;;;;5054009;28;20060;-67
2022/03/14 00:25:29;;;;;;;23.70;8.68;;;;;;;;;;5054006;28;20481;-69
2022/03/14 00:27:55;;;;;;;24.33;8.13;;;;;;;;;;5053874;28;20043;-68
2022/03/14 00:30:21;;;;;;;21.13;5.13;;;;;;;;;;5054140;28;20017;-69
2022/03/14 00:32:47;;;;;;;18.70;5.43;;;;;;;;;;5053862;28;20430;-68
2022/03/14 00:35:14;;;;;;;21.63;5.07;;;;;;;;;;5053804;28;20516;-69
2022/03/14 00:37:40;;;;;;;16.08;5.03;;;;;;;;;;5054013;28;20082;-67
2022/03/14 00:40:07;;;;;;;24.65;7.47;;;;;;;;;;5053737;28;20021;-69
2022/03/14 00:42:34;;;;;;;22.38;5.07;;;;;;;;;;5052828;28;20039;-67
2022/03/14 00:45:01;;;;;;;15.85;5.20;;;;;;;;;;5053675;28;20071;-69
2022/03/14 00:47:28;;;;;;;16.38;5.22;;;;;;;;;;5053559;28;20021;-67
2022/03/14 00:49:55;;;;;;;16.77;5.38;;;;;;;;;;5053798;28;20028;-69
2022/03/14 00:52:21;;;;;;;15.00;6.05;;;;;;;;;;5053520;28;20033;-69
2022/03/14 00:54:47;;;;;;;23.85;5.93;;;;;;;;;;5053445;28;20059;-67
2022/03/14 00:57:17;;;;;;;20.08;5.13;;;;;;;;;;5053462;28;20139;-69
2022/03/14 00:59:43;;;;;;;22.30;5.60;;;;;;;;;;5053462;28;20025;-69
2022/03/14 01:02:09;;;;;;;19.45;5.72;;;;;;;;;;5053287;28;20276;-68
2022/03/14 01:04:36;;;;;;;20.23;5.55;;;;;;;;;;5053132;28;20021;-66
2022/03/14 01:07:02;;;;;;;21.75;5.30;;;;;;;;;;5053641;28;20104;-67
2022/03/14 01:09:31;;;;;;;16.17;5.60;;;;;;;;;;5053307;28;20029;-68
2022/03/14 01:11:58;;;;;;;19.02;5.70;;;;;;;;;;5053241;28;20389;-68
2022/03/14 01:14:24;;;;;;;20.10;5.55;;;;;;;;;;5053188;28;20040;-67
2022/03/14 01:16:51;;;;;;;18.25;4.85;;;;;;;;;;5053196;28;20060;-67
2022/03/14 01:19:17;;;;;;;15.85;4.88;;;;;;;;;;5053182;28;20029;-67
2022/03/14 01:21:43;;;;;;;20.88;4.68;;;;;;;;;;5053071;28;20608;-68
2022/03/14 01:24:09;;;;;;;16.13;5.25;;;;;;;;;;5053104;28;20029;-68
2022/03/14 01:26:35;;;;;;;14.40;4.93;;;;;;;;;;5053093;28;20021;-69
2022/03/14 01:29:05;;;;;;;17.85;5.13;;;;;;;;;;5053296;28;20025;-68
2022/03/14 01:31:31;;;;;;;15.80;4.77;;;;;;;;;;5053580;28;20021;-69
2022/03/14 01:33:58;;;;;;;19.08;5.63;;;;;;;;;;5053019;28;20262;-68
2022/03/14 01:36:24;;;;;;;19.05;5.15;;;;;;;;;;5053294;28;20044;-70
2022/03/14 01:38:50;;;;;;;17.50;5.35;;;;;;;;;;5053212;28;20057;-67
2022/03/14 01:41:17;;;;;;;23.40;7.43;;;;;;;;;;5052852;28;20033;-67
2022/03/14 01:43:43;;;;;;;17.98;5.30;;;;;;;;;;5053238;28;20025;-69
2022/03/14 01:46:10;;;;;;;15.95;4.97;;;;;;;;;;5053174;28;20021;-68
2022/03/14 01:48:36;;;;;;;17.08;4.70;;;;;;;;;;5052867;28;20477;-68
2022/03/14 01:51:02;;;;;;;18.90;6.38;;;;;;;;;;5053141;28;20031;-66
2022/03/14 01:53:30;;;;;;;15.13;4.72;;;;;;;;;;5055225;28;20021;-69
2022/03/14 01:55:56;;;;;;;15.65;5.07;;;;;;;;;;5056960;28;20033;-68
2022/03/14 01:58:22;;;;;;;12.77;5.07;;;;;;;;;;5056977;28;20381;-67
2022/03/14 02:00:48;;;;;;;19.38;4.95;;;;;;;;;;5057124;28;20033;-67
2022/03/14 02:03:14;;;;;;;18.13;4.88;;;;;;;;;;5056893;28;20028;-68
2022/03/14 02:05:40;;;;;;;18.77;4.70;;;;;;;;;;5056272;28;20566;-69
2022/03/14 02:08:07;;;;;;;15.07;4.22;;;;;;;;;;5056592;28;20044;-68
2022/03/14 02:10:37;;;;;;;18.02;6.30;;;;;;;;;;5056532;28;20036;-68
2022/03/14 02:13:07;;;;;;;16.30;4.35;;;;;;;;;;5056540;28;20032;-69
2022/03/14 02:15:34;;;;;;;22.98;6.13;;;;;;;;;;5056989;28;20033;-67
2022/03/14 02:18:00;;;;;;;14.80;5.93;;;;;;;;;;5056932;28;20130;-69
2022/03/14 02:20:26;;;;;;;17.48;4.75;;;;;;;;;;5038374;28;20040;-67
2022/03/14 02:22:52;;;;;;;17.33;5.43;;;;;;;;;;5056763;28;20025;-69
2022/03/14 02:25:18;;;;;;;24.40;7.97;;;;;;;;;;5056501;28;20032;-68
2022/03/14 02:27:44;;;;;;;14.48;4.57;;;;;;;;;;5056481;28;20036;-67
2022/03/14 02:30:11;;;;;;;20.02;5.75;;;;;;;;;;5056127;28;20025;-68
2022/03/14 02:32:41;;;;;;;23.52;9.98;;;;;;;;;;5056093;28;20017;-71
2022/03/14 02:35:07;;;;;;;13.98;5.55;;;;;;;;;;5056074;28;20025;-66
2022/03/14 02:37:33;;;;;;;15.52;5.18;;;;;;;;;;5056287;28;20100;-67
2022/03/14 02:39:59;;;;;;;17.35;4.78;;;;;;;;;;5056248;28;20453;-68
2022/03/14 02:42:25;;;;;;;14.55;4.85;;;;;;;;;;5056113;28;20029;-70
2022/03/14 02:44:51;;;;;;;16.20;5.15;;;;;;;;;;5055895;28;20108;-70
2022/03/14 02:47:17;;;;;;;12.75;4.30;;;;;;;;;;5056112;28;20017;-68
2022/03/14 02:49:43;;;;;;;15.48;5.78;;;;;;;;;;5055816;28;20036;-68
2022/03/14 02:52:09;;;;;;;17.92;5.50;;;;;;;;;;5056011;28;20040;-66
2022/03/14 02:54:35;;;;;;;18.80;5.45;;;;;;;;;;5055613;28;20104;-69
2022/03/14 02:57:02;;;;;;;14.65;5.22;;;;;;;;;;5055678;28;20029;-68
2022/03/14 02:59:28;;;;;;;15.95;5.10;;;;;;;;;;5055630;28;20417;-68
2022/03/14 03:01:54;;;;;;;17.27;5.55;;;;;;;;;;5055487;28;20032;-66
2022/03/14 03:04:20;;;;;;;13.55;4.53;;;;;;;;;;5054510;28;20040;-68
2022/03/14 03:06:46;;;;;;;13.13;5.18;;;;;;;;;;5055798;28;20025;-67
2022/03/14 03:09:13;;;;;;;17.13;5.05;;;;;;;;;;5055408;28;20496;-68
2022/03/14 03:11:40;;;;;;;16.35;4.90;;;;;;;;;;5055670;28;20016;-67
2022/03/14 03:14:06;;;;;;;15.10;4.75;;;;;;;;;;5055955;28;20430;-66
2022/03/14 03:16:34;;;;;;;18.90;5.28;;;;;;;;;;5055546;28;20025;-68
2022/03/14 03:19:00;;;;;;;15.23;4.75;;;;;;;;;;5055265;28;20453;-69
2022/03/14 03:21:27;;;;;;;13.50;4.97;;;;;;;;;;5055101;28;20029;-67
2022/03/14 03:23:53;;;;;;;13.20;4.63;;;;;;;;;;5055405;28;20493;-68
2022/03/14 03:26:19;;;;;;;14.85;4.50;;;;;;;;;;5055092;28;20075;-70
2022/03/14 03:28:45;;;;;;;13.80;4.53;;;;;;;;;;5055094;28;20505;-67
2022/03/14 03:31:13;;;;;;;13.85;4.35;;;;;;;;;;5054967;28;20021;-69
2022/03/14 03:33:39;;;;;;;13.30;3.50;;;;;;;;;;5055519;28;20025;-68
2022/03/14 03:36:07;;;;;;;14.80;4.28;;;;;;;;;;5055199;28;20423;-67
2022/03/14 03:38:33;;;;;;;14.82;4.10;;;;;;;;;;5054904;28;20481;-69
2022/03/14 03:40:59;;;;;;;13.40;4.00;;;;;;;;;;5054784;28;20163;-67
2022/03/14 03:43:25;;;;;;;16.23;3.75;;;;;;;;;;5054764;28;20100;-68
2022/03/14 03:45:51;;;;;;;14.80;3.90;;;;;;;;;;5054731;28;20171;-67
2022/03/14 03:48:17;;;;;;;12.45;4.35;;;;;;;;;;5036767;28;20389;-68
2022/03/14 03:50:44;;;;;;;17.65;4.25;;;;;;;;;;5054615;28;20071;-69
2022/03/14 03:53:10;;;;;;;18.58;4.20;;;;;;;;;;5054568;28;20021;-68
2022/03/14 03:55:36;;;;;;;16.30;4.75;;;;;;;;;;5054444;28;20115;-69
2022/03/14 03:58:02;;;;;;;19.02;5.68;;;;;;;;;;5054758;28;20029;-67
2022/03/14 04:00:28;;;;;;;23.85;4.70;;;;;;;;;;5054411;28;20025;-66
2022/03/14 04:02:54;;;;;;;12.55;4.32;;;;;;;;;;5054581;28;20040;-67
2022/03/14 04:05:21;;;;;;;21.48;4.57;;;;;;;;;;5054311;28;20049;-69
2022/03/14 04:07:47;;;;;;;13.13;4.80;;;;;;;;;;5054321;28;20393;-69
2022/03/14 04:10:14;;;;;;;14.95;4.80;;;;;;;;;;5054286;28;20021;-67
2022/03/14 04:12:40;;;;;;;19.25;6.22;;;;;;;;;;5054739;28;20036;-67
2022/03/14 04:15:10;;;;;;;14.63;4.57;;;;;;;;;;5054156;28;20025;-66
2022/03/14 04:17:37;;;;;;;18.85;5.13;;;;;;;;;;5054111;28;20028;-67
2022/03/14 04:20:06;;;;;;;15.63;4.80;;;;;;;;;;5054093;28;20025;-68
2022/03/14 04:22:32;;;;;;;15.88;5.35;;;;;;;;;;5054531;28;20052;-68
2022/03/14 04:24:59;;;;;;;17.55;4.90;;;;;;;;;;5054280;28;20020;-67
2022/03/14 04:27:25;;;;;;;21.10;5.00;;;;;;;;;;5053968;28;20033;-68
2022/03/14 04:29:52;;;;;;;23.30;5.10;;;;;;;;;;5054133;28;20021;-68
2022/03/14 04:32:18;;;;;;;17.70;4.97;;;;;;;;;;5053866;28;20036;-66
2022/03/14 04:34:44;;;;;;;16.38;4.82;;;;;;;;;;5035934;28;20485;-67
2022/03/14 04:37:12;;;;;;;14.52;4.68;;;;;;;;;;5054075;28;20052;-67
2022/03/14 04:39:40;;;;;;;17.00;4.28;;;;;;;;;;5054021;28;20025;-67
2022/03/14 04:42:06;;;;;;;22.95;4.72;;;;;;;;;;5035740;28;20404;-67
2022/03/14 04:44:34;;;;;;;17.65;4.88;;;;;;;;;;5053949;28;20025;-67
2022/03/14 04:47:00;;;;;;;16.25;4.78;;;;;;;;;;5053617;28;20021;-70
2022/03/14 04:49:27;;;;;;;19.02;5.15;;;;;;;;;;5053541;28;20473;-66
2022/03/14 04:51:55;;;;;;;15.50;4.97;;;;;;;;;;5053499;28;20021;-69
2022/03/14 04:54:21;;;;;;;19.25;6.03;;;;;;;;;;5053420;28;20025;-67
2022/03/14 04:56:47;;;;;;;21.92;6.25;;;;;;;;;;5053747;28;20441;-69
2022/03/14 04:59:13;;;;;;;20.90;5.00;;;;;;;;;;5053477;28;20032;-67
2022/03/14 05:01:40;;;;;;;20.40;5.88;;;;;;;;;;5053823;28;20028;-66
2022/03/14 05:04:06;;;;;;;21.75;5.30;;;;;;;;;;5053373;28;20465;-67
2022/03/14 05:06:32;;;;;;;23.08;5.60;;;;;;;;;;5052918;28;20051;-70
2022/03/14 05:08:58;;;;;;;17.08;5.18;;;;;;;;;;5053297;28;20049;-68
2022/03/14 05:11:25;;;;;;;20.08;5.35;;;;;;;;;;5053298;28;20457;-70
2022/03/14 05:13:51;;;;;;;22.65;6.25;;;;;;;;;;5053525;28;20389;-67
2022/03/14 05:16:17;;;;;;;19.92;5.30;;;;;;;;;;5053182;28;20021;-68
2022/03/14 05:18:43;;;;;;;19.27;5.07;;;;;;;;;;5053136;28;20445;-69
2022/03/14 05:21:10;;;;;;;13.45;4.78;;;;;;;;;;5053071;28;20112;-67
2022/03/14 05:23:36;;;;;;;17.00;5.20;;;;;;;;;;5053434;28;20028;-69
2022/03/14 05:26:02;;;;;;;17.75;5.10;;;;;;;;;;5053410;28;20021;-68
2022/03/14 05:28:28;;;;;;;19.13;5.55;;;;;;;;;;5057532;28;20029;-68
2022/03/14 05:30:54;;;;;;;19.55;5.18;;;;;;;;;;5059688;28;20025;-68
2022/03/14 05:33:20;;;;;;;16.48;5.40;;;;;;;;;;5059670;28;20544;-69
2022/03/14 05:35:47;;;;;;;21.48;5.63;;;;;;;;;;5059673;28;20032;-68
2022/03/14 05:38:14;;;;;;;26.95;5.57;;;;;;;;;;5059965;28;20100;-68
2022/03/14 05:40:40;;;;;;;22.75;5.43;;;;;;;;;;5059896;28;20460;-66
2022/03/14 05:43:10;;;;;;;22.35;5.75;;;;;;;;;;5059518;28;20029;-67
2022/03/14 05:45:36;;;;;;;20.30;5.72;;;;;;;;;;5060163;28;20017;-68
2022/03/14 05:48:02;;;;;;;21.15;5.53;;;;;;;;;;5059601;28;20395;-67
2022/03/14 05:50:28;;;;;;;17.80;5.45;;;;;;;;;;5059505;28;20024;-67
2022/03/14 05:52:54;;;;;;;19.13;5.88;;;;;;;;;;5059776;28;20104;-67
2022/03/14 05:55:21;;;;;;;18.77;5.45;;;;;;;;;;5059460;28;20036;-68
2022/03/14 05:57:47;;;;;;;15.43;5.38;;;;;;;;;;5059482;28;20052;-68
2022/03/14 06:00:13;;;;;;;19.65;5.85;;;;;;;;;;5059563;28;20036;-67
2022/03/14 06:02:44;;;;;;;15.32;5.45;;;;;;;;;;5059677;28;20032;-68
2022/03/14 06:05:10;;;;;;;18.95;6.05;;;;;;;;;;5059495;28;20049;-68
2022/03/14 06:07:36;;;;;;;19.50;5.80;;;;;;;;;;5059352;28;20435;-66
2022/03/14 06:10:02;;;;;;;22.10;6.22;;;;;;;;;;5059395;28;20020;-69
2022/03/14 06:12:29;;;;;;;15.10;5.43;;;;;;;;;;5059332;28;20028;-68
2022/03/14 06:14:57;;;;;;;16.23;5.15;;;;;;;;;;5059207;28;20527;-68
2022/03/14 06:17:24;;;;;;;15.70;4.70;;;;;;;;;;5059377;28;20485;-68
2022/03/14 06:19:50;;;;;;;19.40;5.25;;;;;;;;;;5059554;28;20029;-69
2022/03/14 06:22:20;;;;;;;16.48;4.97;;;;;;;;;;5059479;28;20381;-68
2022/03/14 06:24:47;;;;;;;19.27;5.83;;;;;;;;;;5059575;28;20047;-69
2022/03/14 06:27:17;;;;;;;25.98;5.97;;;;;;;;;;5059259;28;20461;-68
2022/03/14 06:29:43;;;;;;;18.98;5.65;;;;;;;;;;5059290;28;20021;-67
2022/03/14 06:32:10;;;;;;;15.77;5.65;;;;;;;;;;5059232;28;20029;-68
2022/03/14 06:34:36;;;;;;;21.95;5.03;;;;;;;;;;5041229;28;20115;-68
2022/03/14 06:37:02;;;;;;;21.65;4.90;;;;;;;;;;5059169;28;20036;-67
2022/03/14 06:39:28;;;;;;;19.70;5.90;;;;;;;;;;5057094;28;20025;-67
2022/03/14 06:41:54;;;;;;;24.20;5.80;;;;;;;;;;5056131;28;20037;-69
2022/03/14 06:44:22;;;;;;;21.48;5.07;;;;;;;;;;5056150;28;20021;-67
2022/03/14 06:46:49;;;;;;;15.55;4.47;;;;;;;;;;5055830;28;20028;-67
2022/03/14 06:49:16;;;;;;;16.40;4.70;;;;;;;;;;5056099;28;20017;-68
2022/03/14 06:51:42;;;;;;;17.70;5.88;;;;;;;;;;5055761;28;20024;-68
2022/03/14 06:54:09;;;;;;;20.98;4.88;;;;;;;;;;5055990;28;20025;-68
2022/03/14 06:56:37;;;;;;;16.90;5.15;;;;;;;;;;5055620;28;20078;-68
2022/03/14 06:59:03;;;;;;;14.70;4.30;;;;;;;;;;5055955;28;20469;-68
2022/03/14 07:01:30;;;;;;;14.40;4.70;;;;;;;;;;5055484;28;20039;-68
2022/03/14 07:03:56;;;;;;;12.48;4.75;;;;;;;;;;5055616;28;20366;-66
2022/03/14 07:06:22;;;;;;;15.57;4.70;;;;;;;;;;5055336;28;20047;-65
2022/03/14 07:08:48;;;;;;;17.58;6.07;;;;;;;;;;5055513;28;20057;-68
2022/03/14 07:11:14;;;;;;;14.00;4.80;;;;;;;;;;5055739;28;20033;-67
2022/03/14 07:13:40;;;;;;;10.75;4.25;;;;;;;;;;5055395;28;20032;-67
2022/03/14 07:16:06;;;;;;;12.40;4.60;;;;;;;;;;5055340;28;20389;-68
2022/03/14 07:18:34;;;;;;;20.98;4.63;;;;;;;;;;5055279;28;20032;-66
2022/03/14 07:21:01;;;;;;;14.75;3.97;;;;;;;;;;5055130;28;20409;-68
2022/03/14 07:23:27;;;;;;;16.15;4.30;;;;;;;;;;5055471;28;20067;-70
2022/03/14 07:25:53;;;;;;;11.85;4.32;;;;;;;;;;5055419;28;20494;-67
2022/03/14 07:28:19;;;;;;;19.98;4.88;;;;;;;;;;5055445;28;20029;-68
2022/03/14 07:30:45;;;;;;;10.93;3.90;;;;;;;;;;5055352;28;20025;-69
2022/03/14 07:33:11;;;;;;;17.02;4.85;;;;;;;;;;5055286;28;20028;-67
2022/03/14 07:35:37;;;;;;;10.10;3.70;;;;;;;;;;5054986;28;20021;-68
2022/03/14 07:38:04;;;;;;;10.07;3.80;;;;;;;;;;5054974;28;20033;-67
2022/03/14 07:40:30;;;;;;;8.80;3.05;;;;;;;;;;5054868;28;20017;-69
2022/03/14 07:42:58;;;;;;;13.70;3.35;;;;;;;;;;5054746;28;20444;-69
2022/03/14 07:45:25;;;;;;;16.35;3.50;;;;;;;;;;5054815;28;20017;-68
2022/03/14 07:47:52;;;;;;;10.23;3.60;;;;;;;;;;5054777;28;20029;-67
2022/03/14 07:50:19;;;;;;;11.60;3.45;;;;;;;;;;5054390;28;20021;-70
2022/03/14 07:52:45;;;;;;;8.50;3.20;;;;;;;;;;5055164;28;20063;-66
2022/03/14 07:55:12;;;;;;;14.27;2.97;;;;;;;;;;5054118;28;20024;-71
2022/03/14 07:57:38;;;;;;;6.82;3.00;;;;;;;;;;5052969;28;20029;-73
2022/03/14 08:00:06;;;;;;;8.00;3.10;;;;;;;;;;5054328;28;20029;-71
2022/03/14 08:02:32;;;;;;;9.57;3.00;;;;;;;;;;5053892;28;20081;-68
2022/03/14 08:04:58;;;;;;;12.30;3.00;;;;;;;;;;5054252;28;20045;-67
2022/03/14 08:07:26;;;;;;;11.77;2.88;;;;;;;;;;5054066;28;20516;-68
2022/03/14 08:09:52;;;;;;;11.80;3.28;;;;;;;;;;5054361;28;20049;-66
2022/03/14 08:12:18;;;;;;;8.65;3.25;;;;;;;;;;5054295;28;20025;-69
2022/03/14 08:14:46;;;;;;;12.50;3.65;;;;;;;;;;5038349;28;20044;-68
2022/03/14 08:17:11;;;;;;;9.15;2.75;;;16.70;99.00;;;;;;5034298;28;20021;-67
2022/03/14 08:19:37;;;;;;;12.73;3.60;;;13.40;99.90;;;;;;5034224;28;20032;-69
2022/03/14 08:22:03;;;;;;;12.25;2.92;;;;;;;;;;5034075;28;20104;-69
2022/03/14 08:24:29;;;;;;;11.77;3.47;;;;;;;;;;5048194;28;20024;-66
2022/03/14 08:26:55;;;;;;;7.47;2.22;;;16.30;99.90;;;;;;5054503;28;20021;-74
2022/03/14 08:29:21;;;;;;;6.85;2.25;;;24.50;93.30;;;;;;5053680;28;20032;-70
2022/03/14 08:31:46;;;;;;;7.80;2.75;;;25.80;84.20;;;;;;5054425;28;20028;-70
2022/03/14 08:34:13;;;;;;;7.47;2.50;;;27.20;72.40;;;;;;5035781;28;20036;-70
2022/03/14 08:36:40;;;;;;;7.43;2.40;;;27.80;66.50;;;;;;5053820;28;20025;-71
2022/03/14 08:39:07;;;;;;;8.10;2.63;;;28.60;62.00;;;;;;5054339;28;20053;-74
2022/03/14 08:41:34;;;;;;;7.28;2.50;;;29.10;60.00;;;;;;5053640;28;20431;-73
2022/03/14 08:44:00;;;;;;;7.65;2.80;;;29.90;57.40;;;;;;5053188;28;20029;-73
2022/03/14 08:46:26;;;;;;;6.47;2.75;;;29.50;54.30;;;;;;5052845;28;20023;-71
2022/03/14 08:48:51;;;;;;;5.93;2.28;;;29.60;55.80;;;;;;5053542;28;20036;-71
2022/03/14 08:51:17;;;;;;;8.07;2.67;;;30.20;53.30;;;;;;5053274;28;20079;-71
2022/03/14 08:53:43;;;;;;;5.47;2.40;;;30.70;51.20;;;;;;5053446;28;20480;-69
2022/03/14 08:56:08;;;;;;;7.82;2.40;;;30.90;51.20;;;;;;5053520;28;20025;-69
2022/03/14 08:58:34;;;;;;;8.30;2.40;;;31.00;49.00;;;;;;5053249;28;20040;-73
2022/03/14 09:01:00;;;;;;;8.80;2.65;;;30.80;48.30;;;;;;5053369;28;20025;-71
2022/03/14 09:03:26;;;;;;;6.20;2.30;;;30.20;48.20;;;;;;5052430;28;20126;-73
2022/03/14 09:05:58;;;;;;;5.78;2.22;;;30.80;47.80;;;;;;5053247;28;20041;-74
2022/03/14 09:08:26;;;;;;;9.00;2.78;;;31.00;47.10;;;;;;5033422;28;20061;-71
2022/03/14 09:10:53;;;;;;;5.85;2.20;;;31.30;46.30;;;;;;5049685;28;20060;-71
2022/03/14 09:13:20;;;;;;;4.32;2.13;;;31.30;46.70;;;;;;5053242;28;20024;-72
2022/03/14 09:15:48;;;;;;;8.38;2.45;;;32.20;46.30;;;;;;5053489;28;20044;-72
2022/03/14 09:18:14;;;;;;;5.55;2.40;;;32.70;44.20;;;;;;5053266;28;20024;-73
2022/03/14 09:20:40;;;;;;;5.97;2.33;;;32.40;43.00;;;;;;5052567;28;20395;-70
2022/03/14 09:23:07;;;;;;;5.03;2.10;;;32.70;43.20;;;;;;5035419;28;20037;-71
2022/03/14 09:25:33;;;;;;;7.47;2.30;;;32.60;43.70;;;;;;5053400;28;20071;-71
2022/03/14 09:27:59;;;;;;;6.32;2.25;;;33.40;43.50;;;;;;5053395;28;20424;-71
2022/03/14 09:30:25;;;;;;;4.35;2.00;;;33.70;41.60;;;;;;5052970;28;20024;-71
2022/03/14 09:32:53;;;;;;;5.72;2.47;;;33.60;42.30;;;;;;5053309;28;20491;-70
2022/03/14 09:35:19;;;;;;;5.25;2.00;;;34.00;41.70;;;;;;5053035;28;20416;-70
2022/03/14 09:37:46;;;;;;;4.57;1.90;;;33.80;41.30;;;;;;5052957;28;20025;-71
2022/03/14 09:40:16;;;;;;;6.95;2.20;;;33.80;40.30;;;;;;5053018;28;20029;-71
2022/03/14 09:42:45;;;;;;;5.05;1.85;;;33.00;40.80;;;;;;5053497;28;20542;-70
2022/03/14 09:45:14;;;;;;;5.95;2.10;;;32.80;40.40;;;;;;5052880;28;20474;-70
2022/03/14 09:47:44;;;;;;;;;;;33.10;40.60;;;;;;5053308;28;20102;-71
2022/03/14 09:50:13;;;;;;;7.15;2.80;;;33.40;40.20;;;;;;5052926;28;19911;-70
2022/03/14 09:52:41;;;;;;;3.88;1.67;;;32.90;39.40;;;;;;5052924;28;20021;-71
2022/03/14 09:55:10;;;;;;;5.05;1.83;;;33.00;40.20;;;;;;5053159;28;20036;-71
2022/03/14 09:57:37;;;;;;;4.45;2.05;;;32.80;38.90;;;;;;5034914;28;20057;-71
2022/03/14 10:00:10;;;;;;;7.55;2.45;;;32.50;39.10;;;;;;5053142;28;20029;-70
2022/03/14 10:02:36;;;;;;;7.40;2.63;;;31.00;40.00;;;;;;5052720;28;20435;-70
2022/03/14 10:05:06;;;;;;;7.93;2.67;;;28.50;41.30;;;;;;5052441;28;20053;-71
2022/03/14 10:07:34;;;;;;;6.57;2.20;;;26.30;44.60;;;;;;5052759;28;20092;-71
2022/03/14 10:10:00;;;;;;;7.97;3.05;;;27.40;45.40;;;;;;5052968;28;20104;-70
2022/03/14 10:12:26;;;;;;;9.07;2.80;;;30.60;42.20;;;;;;5051874;28;20025;-70
2022/03/14 10:14:51;;;;;;;5.25;1.92;;;32.60;39.40;;;;;;5055097;28;20021;-70
2022/03/14 10:17:17;;;;;;;6.75;2.42;;;;;;;;;;5056458;28;20156;-72
2022/03/14 10:19:56;;;;;;;6.50;2.20;;;33.20;38.60;;;;;;5056458;28;20029;-70
2022/03/14 10:22:23;;;;;;;4.97;2.08;;;32.30;39.20;;;;;;5056716;28;20025;-70
2022/03/14 10:25:00;;;;;;;7.03;2.00;;;33.40;36.80;;;;;;5038260;28;20393;-71
2022/03/14 10:27:26;;;;;;;4.53;1.50;;;34.10;37.10;;;;;;5056266;28;20389;-71
2022/03/14 10:29:52;;;;;;;4.15;1.75;;;34.90;36.30;;;;;;5055886;28;20029;-71
2022/03/14 10:32:37;;;;;;;7.50;2.20;;;35.30;35.40;;;;;;5056361;28;20029;-73
2022/03/14 10:35:07;;;;;;;4.97;1.52;;;35.40;35.70;;;;;;5056513;28;20029;-70
2022/03/14 10:37:34;;;;;;;9.02;2.20;;;34.70;35.20;;;;;;5056485;28;20474;-71
2022/03/14 10:40:10;;;;;;;6.07;2.17;;;34.50;35.90;;;;;;5055410;28;20025;-70
2022/03/14 10:42:43;;;;;;;5.65;2.15;;;34.60;35.70;;;;;;5056030;28;20013;-71
2022/03/14 10:45:16;;;;;;;7.30;2.15;;;34.30;34.90;;;;;;5056014;28;20465;-71
2022/03/14 10:47:46;;;;;;;6.07;1.98;;;33.80;34.60;;;;;;5055833;28;20056;-72
2022/03/14 10:50:31;;;;;;;7.90;1.70;;;33.20;34.10;;;;;;5055495;28;20029;-70
2022/03/14 10:53:09;;;;;;;5.53;1.80;;;33.90;34.50;;;;;;5056189;28;20463;-70
2022/03/14 10:55:38;;;;;;;5.18;1.90;;;34.20;34.40;;;;;;5056024;28;20043;-71
2022/03/14 10:58:23;;;;;;;4.88;1.77;;;34.80;34.70;;;;;;5055776;28;20488;-72
2022/03/14 11:00:51;;;;;;;6.05;1.90;;;;;;;;;;5055752;28;20489;-70
2022/03/14 11:03:24;;;;;;;5.13;2.05;;;;;;;;;;5037507;28;20060;-70
2022/03/14 11:05:50;;;;;;;5.05;1.52;;;;;;;;;;5055568;28;20055;-72
2022/03/14 11:08:25;;;;;;;5.80;1.58;;;;;;;;;;5054302;28;20025;-72
2022/03/14 11:10:51;;;;;;;3.95;1.60;;;;;;;;;;5055012;28;20029;-71
2022/03/14 11:13:18;;;;;;;5.07;1.70;;;;;;;;;;5055630;28;20021;-72
2022/03/14 11:15:44;;;;;;;3.72;1.45;;;34.60;34.60;;;;;;5055324;28;20029;-71
2022/03/14 11:18:10;;;;;;;5.57;1.50;;;;;;;;;;5055016;28;20036;-68
2022/03/14 11:20:36;;;;;;;4.25;1.30;;;;;;;;;;5055421;28;20029;-70
2022/03/14 11:23:04;;;;;;;4.10;1.48;;;;;;;;;;5055240;28;20021;-70
2022/03/14 11:25:30;;;;;;;3.78;1.60;;;;;;;;;;5054833;28;20078;-73
2022/03/14 11:27:58;;;;;;;4.72;1.88;;;;;;;;;;5054598;28;20025;-69
2022/03/14 11:30:26;;;;;;;6.23;1.90;;;;;;;;;;5055078;28;20029;-69
2022/03/14 11:32:52;;;;;;;3.72;1.45;;;32.00;33.20;;;;;;5055374;28;20028;-69
2022/03/14 11:35:19;;;;;;;5.63;1.65;;;;;;;;;;5055021;28;20486;-70
2022/03/14 11:37:46;;;;;;;5.00;1.67;;;;;;;;;;5037088;28;20467;-68
2022/03/14 11:40:14;;;;;;;5.07;1.75;;;30.90;33.40;;;;;;5054900;28;20477;-69
2022/03/14 11:42:40;;;;;;;6.22;2.05;;;29.30;34.70;;;;;;5054787;28;20025;-69
2022/03/14 11:45:07;;;;;;;4.68;1.67;;;26.70;36.40;;;;;;5054847;28;20099;-70
2022/03/14 11:47:34;;;;;;;5.57;1.85;;;;;;;;;;5054754;28;20524;-68
2022/03/14 11:50:03;;;;;;;6.00;1.85;;;;;;;;;;5054749;28;20139;-69
2022/03/14 11:52:37;;;;;;;3.28;1.48;;;;;;;;;;5054770;28;20108;-68
2022/03/14 11:55:14;;;;;;;3.47;1.40;;;;;;;;;;5054587;28;20083;-69
2022/03/14 11:57:43;;;;;;;2.97;1.75;;;22.80;40.30;;;;;;5054855;28;20485;-69
2022/03/14 12:00:22;;;;;;;3.38;1.48;;;;;;;;;;5054850;28;20040;-69
2022/03/14 12:02:56;;;;;;;7.10;1.77;;;18.20;47.40;;;;;;5054461;28;20068;-69
2022/03/14 12:05:43;;;;;;;5.78;1.67;;;17.60;46.70;;;;;;5054644;28;20099;-69
2022/03/14 12:08:30;;;;;;;5.45;1.45;;;;;;;;;;5054536;28;20052;-68
2022/03/14 12:10:56;;;;;;;7.35;2.20;;;;;;;;;;5054193;28;20079;-69
2022/03/14 12:13:54;;;;;;;5.15;1.80;;;;;;;;;;5054832;28;20025;-69
2022/03/14 12:16:37;;;;;;;4.22;1.70;;;;;;;;;;5031790;28;20087;-69
2022/03/14 12:19:23;;;;;;;6.60;1.65;;;;;;;;;;5054531;28;20118;-70
2022/03/14 12:21:52;;;;;;;4.35;1.70;;;;;;;;;;5054385;28;20028;-69
2022/03/14 12:24:42;;;;;;;4.43;1.70;;;;;;;;;;5054391;28;20148;-69
2022/03/14 12:27:19;;;;;;;4.72;1.48;;;;;;;;;;5049045;28;20041;-70
2022/03/14 12:29:46;;;;;;;3.90;1.60;;;17.40;47.10;;;;;;5054199;28;20025;-69
2022/03/14 12:32:26;;;;;;;5.18;1.80;;;17.40;51.00;;;;;;5053932;28;20025;-69
2022/03/14 12:35:01;;;;;;;5.43;1.90;;;;;;;;;;5054477;28;20025;-68
2022/03/14 12:37:36;;;;;;;3.83;1.40;;;;;;;;;;5053136;28;20025;-68
2022/03/14 12:40:03;;;;;;;4.82;1.80;;;;;;;;;;5035650;28;20029;-69
2022/03/14 12:42:37;;;;;;;4.82;1.80;;;;;;;;;;5053935;28;20112;-69
2022/03/14 12:45:24;;;;;;;4.68;1.60;;;;;;;;;;5054035;28;20051;-69
2022/03/14 12:47:58;;;;;;;5.80;1.60;;;;;;;;;;5053542;28;20024;-70
2022/03/14 12:50:44;;;;;;;5.30;1.88;;;;;;;;;;5053886;28;20021;-69
2022/03/14 12:53:10;;;;;;;2.47;1.50;;;;;;;;;;5053898;28;20158;-68
2022/03/14 12:55:42;;;;;;;5.03;1.55;;;;;;;;;;5053439;28;20477;-68
2022/03/14 12:58:09;;;;;;;5.00;1.77;;;;;;;;;;5053528;28;20036;-70
2022/03/14 13:00:38;;;;;;;4.85;1.70;;;;;;;;;;5053416;28;20103;-68
2022/03/14 13:03:06;;;;;;;4.95;1.60;;;;;;;;;;5053557;28;20555;-68
2022/03/14 13:05:32;;;;;;;5.18;1.50;;;;;;;;;;5053213;28;20378;-68
2022/03/14 13:08:02;;;;;;;5.20;1.60;;;;;;;;;;5053311;28;20052;-69
2022/03/14 13:10:38;;;;;;;3.53;1.58;;;;;;;;;;5053261;28;20104;-68
2022/03/14 13:13:04;;;;;;;3.97;1.60;;;;;;;;;;5052825;28;20056;-68
2022/03/14 13:15:30;;;;;;;3.50;1.80;;;;;;;;;;5053223;28;20035;-70
2022/03/14 13:17:56;;;;;;;2.85;1.35;;;;;;;;;;5053081;28;20103;-70
2022/03/14 13:20:23;;;;;;;5.95;1.85;;;;;;;;;;5053160;28;20477;-70
2022/03/14 13:22:49;;;;;;;4.72;1.65;;;;;;;;;;5052571;28;20039;-69
2022/03/14 13:25:36;;;;;;;5.72;1.92;;;;;;;;;;5053403;28;20033;-69
2022/03/14 13:28:02;;;;;;;6.00;1.77;;;;;;;;;;5053505;28;20021;-72
2022/03/14 13:30:44;;;;;;;4.32;1.70;;;;;;;;;;5053199;28;20021;-71
2022/03/14 13:33:24;;;;;;;3.55;1.50;;;;;;;;;;5033842;28;20120;-70
2022/03/14 13:35:53;;;;;;;3.50;1.63;;;;;;;;;;5033870;28;20079;-69
2022/03/14 13:38:29;;;;;;;2.33;1.30;;;;;;;;;;5048763;28;20044;-72
2022/03/14 13:40:55;;;;;;;5.57;2.10;;;;;;;;;;5052161;28;20614;-71
2022/03/14 13:43:21;;;;;;;4.82;1.80;;;;;;;;;;5052602;28;20029;-70
2022/03/14 13:45:47;;;;;;;3.58;1.98;;;17.40;50.10;;;;;;5052583;28;20033;-70
2022/03/14 13:48:21;;;;;;;4.18;1.80;;;17.60;52.00;;;;;;5052502;28;20021;-68
2022/03/14 13:50:47;;;;;;;4.00;2.10;;;17.50;50.50;;;;;;5057324;28;20021;-70
2022/03/14 13:53:22;;;;;;;3.25;1.80;;;17.50;52.60;;;;;;5056954;28;20025;-70
2022/03/14 13:55:54;;;;;;;5.50;2.45;;;;;;;;;;5056963;28;20029;-72
2022/03/14 13:58:26;;;;;;;6.25;2.17;;;;;;;;;;5056535;28;20501;-72
2022/03/14 14:00:53;;;;;;;5.15;1.85;;;;;;;;;;5056784;28;20068;-71
2022/03/14 14:03:25;;;;;;;4.75;1.90;;;;;;;;;;5056664;28;20029;-72
2022/03/14 14:05:52;;;;;;;3.40;2.30;;;;;;;;;;5056114;28;20092;-71
2022/03/14 14:08:31;;;;;;;4.75;1.80;;;;;;;;;;5056745;28;20482;-70
2022/03/14 14:10:58;;;;;;;3.22;1.70;;;;;;;;;;5056891;28;20385;-72